Time;durP1;ratioP1;P1;durP2;ratioP2;P2;SDS_P1;SDS_P2;PMS_P1;PMS_P2;Temp;Humidity;BMP_temperature;BMP_pressure;BME280_temperature;BME280_humidity;BME280_pressure;Samples;Min_cycle;Max_cycle;Signal;HPM_P1;HPM_P2
2021/04/07 00:02:15;;;;;;;1.17;1.00;;;0.70;98.00;;;;;;5090457;28;20499;-68
2021/04/07 00:04:41;;;;;;;1.20;1.10;;;0.60;98.00;;;;;;5087252;28;20862;-68
2021/04/07 00:07:08;;;;;;;1.20;1.00;;;0.70;98.00;;;;;;5090586;28;20558;-68
2021/04/07 00:09:35;;;;;;;1.13;0.93;;;0.70;98.00;;;;;;5088545;28;20520;-68
2021/04/07 00:12:02;;;;;;;1.17;1.00;;;0.80;98.00;;;;;;5090357;28;20914;-68
2021/04/07 00:14:29;;;;;;;1.20;1.00;;;0.80;98.00;;;;;;5088541;28;20554;-68
2021/04/07 00:16:55;;;;;;;1.20;1.00;;;0.70;98.00;;;;;;5089220;28;20529;-68
2021/04/07 00:19:22;;;;;;;1.20;1.00;;;0.70;98.00;;;;;;5090097;28;20494;-68
2021/04/07 00:21:48;;;;;;;1.20;1.10;;;0.70;98.00;;;;;;5094074;28;20883;-69
2021/04/07 00:24:15;;;;;;;1.20;1.00;;;0.70;98.00;;;;;;5092288;28;20454;-68
2021/04/07 00:26:41;;;;;;;1.13;0.93;;;0.60;98.00;;;;;;5094185;28;20457;-68
2021/04/07 00:29:09;;;;;;;1.10;1.00;;;0.50;98.00;;;;;;5092113;28;20842;-68
2021/04/07 00:31:35;;;;;;;1.17;1.00;;;0.40;98.00;;;;;;5094025;28;21006;-68
2021/04/07 00:34:01;;;;;;;1.10;0.90;;;0.40;98.00;;;;;;5092833;28;20813;-69
2021/04/07 00:36:28;;;;;;;1.20;1.00;;;0.40;98.00;;;;;;5094735;28;20484;-68
2021/04/07 00:38:55;;;;;;;1.30;1.17;;;0.40;98.00;;;;;;5091839;28;20814;-68
2021/04/07 00:41:21;;;;;;;1.20;1.00;;;0.40;98.00;;;;;;5094448;28;20514;-68
2021/04/07 00:43:48;;;;;;;1.10;1.00;;;0.40;98.00;;;;;;5090584;28;20574;-69
2021/04/07 00:46:15;;;;;;;1.10;1.00;;;0.50;98.00;;;;;;5094047;28;20449;-68
2021/04/07 00:48:42;;;;;;;1.17;1.00;;;0.50;98.00;;;;;;5090398;28;20491;-69
2021/04/07 00:51:08;;;;;;;1.20;1.10;;;0.60;98.00;;;;;;5093789;28;21010;-68
2021/04/07 00:53:34;;;;;;;1.20;1.20;;;0.60;98.00;;;;;;5091619;28;20818;-69
2021/04/07 00:56:01;;;;;;;1.10;1.00;;;0.60;98.00;;;;;;5093935;28;20461;-68
2021/04/07 00:58:28;;;;;;;1.10;1.00;;;0.60;98.00;;;;;;5091645;28;20458;-69
2021/04/07 01:00:54;;;;;;;1.17;1.00;;;0.60;98.00;;;;;;5093898;28;20870;-68
2021/04/07 01:03:22;;;;;;;1.20;1.07;;;0.60;98.00;;;;;;5093182;28;20549;-69
2021/04/07 01:05:49;;;;;;;1.20;0.93;;;0.70;98.00;;;;;;5093260;28;20457;-68
2021/04/07 01:08:15;;;;;;;1.37;1.33;;;0.50;98.00;;;;;;5093682;28;20762;-68
2021/04/07 01:10:42;;;;;;;1.20;1.00;;;0.50;98.00;;;;;;5091246;28;20477;-68
2021/04/07 01:13:08;;;;;;;1.20;1.00;;;0.40;98.00;;;;;;5093229;28;20457;-68
2021/04/07 01:15:36;;;;;;;1.20;1.00;;;0.50;98.00;;;;;;5091052;28;20943;-68
2021/04/07 01:18:02;;;;;;;1.20;1.13;;;0.40;98.00;;;;;;5093493;28;20499;-68
2021/04/07 01:20:30;;;;;;;1.10;1.00;;;0.40;98.00;;;;;;5091070;28;20489;-68
2021/04/07 01:22:59;;;;;;;1.10;0.90;;;0.40;98.00;;;;;;5093206;28;20461;-68
2021/04/07 01:25:26;;;;;;;1.10;1.10;;;0.40;98.00;;;;;;5090835;28;20461;-68
2021/04/07 01:27:54;;;;;;;1.10;1.00;;;0.50;98.00;;;;;;5093138;28;20456;-68
2021/04/07 01:30:22;;;;;;;1.40;1.30;;;0.50;98.00;;;;;;5090530;28;20876;-68
2021/04/07 01:32:48;;;;;;;1.10;1.00;;;0.50;98.00;;;;;;5092888;28;20943;-68
2021/04/07 01:35:17;;;;;;;1.20;1.00;;;0.60;98.00;;;;;;5090412;28;20453;-68
2021/04/07 01:37:44;;;;;;;1.10;1.00;;;0.50;98.00;;;;;;5093081;28;20453;-69
2021/04/07 01:40:13;;;;;;;1.10;1.00;;;0.40;98.00;;;;;;5090389;28;20490;-68
2021/04/07 01:42:42;;;;;;;1.10;1.00;;;0.40;98.00;;;;;;5092659;28;20484;-68
2021/04/07 01:45:09;;;;;;;1.10;1.00;;;0.30;98.00;;;;;;5090343;28;20468;-68
2021/04/07 01:47:36;;;;;;;1.10;1.00;;;0.30;98.00;;;;;;5092701;28;20468;-68
2021/04/07 01:50:05;;;;;;;1.17;1.07;;;0.40;98.00;;;;;;5090158;28;20449;-68
2021/04/07 01:52:32;;;;;;;1.10;1.00;;;0.30;98.00;;;;;;5092549;28;20885;-68
2021/04/07 01:54:59;;;;;;;1.10;0.90;;;0.40;98.00;;;;;;5090250;28;20482;-68
2021/04/07 01:57:26;;;;;;;1.87;1.73;;;0.30;98.00;;;;;;5092434;28;20457;-68
2021/04/07 01:59:53;;;;;;;1.10;1.00;;;0.30;98.00;;;;;;5090105;28;20889;-68
2021/04/07 02:02:20;;;;;;;1.20;1.00;;;0.50;98.00;;;;;;5092038;28;20444;-68
2021/04/07 02:04:47;;;;;;;1.10;1.00;;;0.60;98.00;;;;;;5090298;28;20468;-68
2021/04/07 02:07:15;;;;;;;1.10;1.00;;;0.60;98.00;;;;;;5092216;28;20455;-68
2021/04/07 02:09:42;;;;;;;1.20;1.00;;;0.80;98.00;;;;;;5090218;28;20464;-68
2021/04/07 02:12:09;;;;;;;1.10;1.00;;;0.60;98.00;;;;;;5092215;28;20508;-68
2021/04/07 02:14:36;;;;;;;1.20;1.10;;;0.50;98.00;;;;;;5089963;28;20868;-68
2021/04/07 02:17:05;;;;;;;1.43;1.27;;;0.60;98.00;;;;;;5092030;28;20824;-68
2021/04/07 02:19:34;;;;;;;1.20;1.10;;;0.60;98.00;;;;;;5090288;28;20803;-68
2021/04/07 02:22:06;;;;;;;1.20;1.07;;;0.50;98.00;;;;;;5092347;28;20828;-68
2021/04/07 02:24:33;;;;;;;1.20;1.00;;;0.60;98.00;;;;;;5090046;28;20446;-68
2021/04/07 02:27:01;;;;;;;1.10;1.00;;;0.60;98.00;;;;;;5092224;28;20454;-68
2021/04/07 02:29:29;;;;;;;1.20;1.00;;;0.60;98.00;;;;;;5090034;28;20465;-68
2021/04/07 02:31:56;;;;;;;2.17;1.30;;;0.50;98.00;;;;;;5091848;28;20871;-68
2021/04/07 02:34:23;;;;;;;1.13;0.90;;;0.40;98.00;;;;;;5089915;28;20454;-68
2021/04/07 02:36:50;;;;;;;1.20;1.10;;;0.40;98.00;;;;;;5091598;28;20449;-68
2021/04/07 02:39:17;;;;;;;1.30;1.20;;;0.40;98.00;;;;;;5089584;28;20928;-68
2021/04/07 02:41:44;;;;;;;1.20;1.00;;;0.40;98.00;;;;;;5091224;28;20473;-68
2021/04/07 02:44:10;;;;;;;1.20;1.00;;;0.40;98.00;;;;;;5089243;28;20515;-68
2021/04/07 02:46:37;;;;;;;1.70;1.33;;;0.40;98.00;;;;;;5091450;28;20956;-68
2021/04/07 02:49:04;;;;;;;1.20;1.20;;;0.50;98.00;;;;;;5089477;28;20868;-68
2021/04/07 02:51:31;;;;;;;1.17;1.03;;;0.50;98.00;;;;;;5091294;28;20540;-68
2021/04/07 02:53:58;;;;;;;1.20;1.10;;;0.60;98.00;;;;;;5088098;28;20462;-68
2021/04/07 02:56:24;;;;;;;1.90;1.80;;;0.50;98.00;;;;;;5091528;28;20452;-68
2021/04/07 02:58:51;;;;;;;1.20;1.00;;;0.50;98.00;;;;;;5088844;28;20585;-69
2021/04/07 03:01:17;;;;;;;1.20;1.00;;;0.60;98.00;;;;;;5090872;28;20508;-68
2021/04/07 03:03:44;;;;;;;1.20;1.00;;;0.60;98.00;;;;;;5089115;28;20510;-68
2021/04/07 03:06:10;;;;;;;1.20;0.90;;;0.70;98.00;;;;;;5091256;28;20498;-68
2021/04/07 03:08:38;;;;;;;1.83;1.30;;;0.70;98.00;;;;;;5088938;28;21016;-70
2021/04/07 03:11:04;;;;;;;1.50;1.30;;;0.70;98.00;;;;;;5089987;28;20481;-68
2021/04/07 03:13:31;;;;;;;3.77;1.70;;;0.70;98.00;;;;;;5089963;28;20466;-68
2021/04/07 03:15:57;;;;;;;1.20;1.00;;;0.70;98.00;;;;;;5088927;28;20578;-68
2021/04/07 03:18:23;;;;;;;1.20;1.00;;;0.70;98.00;;;;;;5090847;28;20505;-68
2021/04/07 03:20:50;;;;;;;1.93;1.33;;;0.60;98.00;;;;;;5088957;28;20486;-68
2021/04/07 03:23:17;;;;;;;1.20;1.03;;;0.60;98.00;;;;;;5090990;28;20500;-68
2021/04/07 03:25:44;;;;;;;1.20;1.00;;;0.60;98.00;;;;;;5088937;28;20586;-68
2021/04/07 03:28:11;;;;;;;1.87;1.50;;;0.50;98.00;;;;;;5091085;28;20458;-68
2021/04/07 03:30:49;;;;;;;1.20;1.00;;;0.50;98.00;;;;;;5088584;28;20947;-68
2021/04/07 03:33:16;;;;;;;1.23;1.17;;;0.50;98.00;;;;;;5090887;28;20522;-68
2021/04/07 03:35:43;;;;;;;1.40;1.30;;;0.50;98.00;;;;;;5088527;28;20525;-68
2021/04/07 03:38:10;;;;;;;1.20;1.20;;;0.50;98.00;;;;;;5090880;28;20497;-68
2021/04/07 03:40:38;;;;;;;1.23;1.13;;;0.50;98.00;;;;;;5088537;28;20538;-68
2021/04/07 03:43:07;;;;;;;1.20;1.00;;;0.50;98.00;;;;;;5090813;28;20503;-68
2021/04/07 03:45:34;;;;;;;1.20;1.10;;;0.50;98.00;;;;;;5088725;28;20498;-68
2021/04/07 03:48:00;;;;;;;1.33;1.30;;;0.40;98.00;;;;;;5090789;28;20456;-68
2021/04/07 03:50:27;;;;;;;1.20;1.20;;;0.40;98.00;;;;;;5088796;28;20522;-68
2021/04/07 03:52:54;;;;;;;1.20;1.00;;;0.40;98.00;;;;;;5091697;28;20871;-68
2021/04/07 03:55:20;;;;;;;1.40;1.20;;;0.40;98.00;;;;;;5092518;28;21020;-68
2021/04/07 03:57:47;;;;;;;1.20;1.10;;;0.40;98.00;;;;;;5094801;28;20452;-68
2021/04/07 04:00:15;;;;;;;1.20;1.00;;;0.50;98.00;;;;;;5092464;28;20463;-68
2021/04/07 04:02:42;;;;;;;1.20;1.00;;;0.40;98.00;;;;;;5094724;28;20846;-68
2021/04/07 04:05:09;;;;;;;1.10;1.03;;;0.40;98.00;;;;;;5091028;28;20488;-68
2021/04/07 04:07:36;;;;;;;1.20;1.00;;;0.40;98.00;;;;;;5094715;28;20610;-68
2021/04/07 04:10:02;;;;;;;1.23;1.10;;;0.40;98.00;;;;;;5092277;28;20512;-68
2021/04/07 04:12:29;;;;;;;1.20;1.00;;;0.40;98.00;;;;;;5094487;28;20522;-68
2021/04/07 04:14:55;;;;;;;1.30;1.20;;;0.40;98.00;;;;;;5092366;28;20463;-68
2021/04/07 04:17:23;;;;;;;1.20;1.00;;;0.40;98.00;;;;;;5094481;28;20487;-68
2021/04/07 04:19:49;;;;;;;1.20;1.03;;;0.40;98.00;;;;;;5092100;28;20996;-68
2021/04/07 04:22:16;;;;;;;1.17;1.00;;;0.40;98.00;;;;;;5094232;28;20479;-68
2021/04/07 04:24:43;;;;;;;1.20;1.00;;;0.40;98.00;;;;;;5092387;28;20951;-68
2021/04/07 04:27:10;;;;;;;1.20;1.00;;;0.50;98.00;;;;;;5094294;28;20821;-68
2021/04/07 04:29:37;;;;;;;1.20;0.90;;;0.50;98.00;;;;;;5092154;28;20517;-68
2021/04/07 04:32:04;;;;;;;1.60;1.20;;;0.50;98.00;;;;;;5094083;28;20485;-68
2021/04/07 04:34:31;;;;;;;1.20;1.00;;;0.60;98.00;;;;;;5092013;28;20468;-68
2021/04/07 04:36:58;;;;;;;1.20;1.00;;;0.60;98.00;;;;;;5093997;28;20546;-68
2021/04/07 04:39:24;;;;;;;1.20;1.03;;;0.60;98.00;;;;;;5092446;28;20463;-68
2021/04/07 04:41:50;;;;;;;1.20;1.00;;;0.50;98.00;;;;;;5093986;28;20498;-68
2021/04/07 04:44:17;;;;;;;1.20;1.10;;;0.50;98.00;;;;;;5091823;28;20464;-68
2021/04/07 04:46:43;;;;;;;1.20;1.03;;;0.40;98.00;;;;;;5093564;28;20493;-68
2021/04/07 04:49:10;;;;;;;1.30;1.23;;;0.50;98.00;;;;;;5090675;28;20461;-68
2021/04/07 04:51:37;;;;;;;1.50;1.40;;;0.50;98.00;;;;;;5092516;28;20516;-68
2021/04/07 04:54:04;;;;;;;1.20;1.00;;;0.60;98.00;;;;;;5090578;28;20486;-68
2021/04/07 04:56:31;;;;;;;1.20;1.10;;;0.80;98.00;;;;;;5092528;28;20923;-68
2021/04/07 04:58:57;;;;;;;1.30;1.20;;;0.80;98.00;;;;;;5090613;28;20464;-68
2021/04/07 05:01:25;;;;;;;1.20;1.03;;;0.80;98.00;;;;;;5092395;28;20442;-68
2021/04/07 05:03:52;;;;;;;2.30;1.70;;;0.70;98.00;;;;;;5089832;28;20460;-69
2021/04/07 05:06:18;;;;;;;1.20;1.00;;;0.60;98.00;;;;;;5092535;28;20462;-68
2021/04/07 05:08:46;;;;;;;1.20;1.00;;;0.60;98.00;;;;;;5092021;28;20975;-69
2021/04/07 05:11:14;;;;;;;1.20;1.00;;;0.80;98.00;;;;;;5091643;28;20482;-68
2021/04/07 05:13:40;;;;;;;1.20;1.03;;;0.80;98.00;;;;;;5091010;28;20955;-68
2021/04/07 05:16:07;;;;;;;1.27;1.13;;;0.80;98.00;;;;;;5088897;28;20453;-68
2021/04/07 05:18:34;;;;;;;1.20;1.20;;;0.80;98.00;;;;;;5092266;28;20818;-68
2021/04/07 05:21:00;;;;;;;1.63;1.53;;;0.70;98.00;;;;;;5090057;28;20463;-67
2021/04/07 05:23:27;;;;;;;2.03;1.53;;;0.60;98.00;;;;;;5092053;28;20457;-68
2021/04/07 05:25:54;;;;;;;1.20;1.00;;;0.70;98.00;;;;;;5089883;28;20461;-68
2021/04/07 05:28:20;;;;;;;1.30;1.20;;;0.80;98.00;;;;;;5091801;28;20963;-68
2021/04/07 05:31:00;;;;;;;1.20;1.00;;;0.80;98.00;;;;;;5089791;28;20454;-68
2021/04/07 05:33:27;;;;;;;1.23;1.10;;;0.80;98.00;;;;;;5090655;28;20451;-68
2021/04/07 05:35:55;;;;;;;1.20;1.00;;;0.80;98.00;;;;;;5089810;28;20464;-68
2021/04/07 05:38:22;;;;;;;1.20;1.10;;;0.70;98.00;;;;;;5091825;28;20467;-68
2021/04/07 05:40:49;;;;;;;1.20;1.00;;;0.80;98.00;;;;;;5089876;28;20880;-68
2021/04/07 05:43:17;;;;;;;1.30;1.30;;;0.90;98.00;;;;;;5092076;28;20449;-68
2021/04/07 05:45:43;;;;;;;1.20;1.10;;;0.90;98.00;;;;;;5089545;28;20458;-68
2021/04/07 05:48:10;;;;;;;1.20;1.00;;;0.90;98.00;;;;;;5070111;28;636467;-68
2021/04/07 05:50:38;;;;;;;1.17;1.00;;;0.90;98.00;;;;;;5091570;28;20211;-68
2021/04/07 05:53:05;;;;;;;1.20;1.00;;;1.00;98.00;;;;;;5093153;28;20524;-67
2021/04/07 05:55:32;;;;;;;1.20;1.00;;;1.10;98.00;;;;;;5091592;28;20457;-68
2021/04/07 05:58:00;;;;;;;1.20;1.10;;;1.10;98.00;;;;;;5092565;28;20947;-68
2021/04/07 06:00:28;;;;;;;1.20;1.00;;;1.10;98.00;;;;;;5090649;28;20454;-68
2021/04/07 06:02:55;;;;;;;1.20;1.00;;;1.10;98.00;;;;;;5091231;28;21022;-68
2021/04/07 06:05:23;;;;;;;1.30;1.10;;;1.00;98.00;;;;;;5090333;28;20466;-68
2021/04/07 06:07:50;;;;;;;1.20;1.00;;;0.90;98.00;;;;;;5092361;28;20832;-68
2021/04/07 06:10:16;;;;;;;1.20;1.10;;;1.10;98.00;;;;;;5090234;28;20454;-69
2021/04/07 06:12:43;;;;;;;1.20;1.00;;;1.20;98.00;;;;;;5092286;28;20516;-69
2021/04/07 06:15:10;;;;;;;1.60;1.20;;;1.20;98.00;;;;;;5090111;28;20490;-68
2021/04/07 06:17:40;;;;;;;1.20;1.00;;;1.20;98.00;;;;;;5090561;28;20462;-69
2021/04/07 06:20:08;;;;;;;1.30;1.10;;;1.30;98.00;;;;;;5090072;28;20451;-68
2021/04/07 06:22:35;;;;;;;1.20;1.03;;;1.40;98.00;;;;;;5092018;28;20452;-67
2021/04/07 06:25:02;;;;;;;1.27;1.03;;;1.20;98.00;;;;;;5089846;28;20488;-68
2021/04/07 06:27:29;;;;;;;1.20;1.03;;;1.20;98.00;;;;;;5091938;28;20453;-68
2021/04/07 06:29:55;;;;;;;1.10;1.00;;;1.00;98.00;;;;;;5089660;28;20968;-65
2021/04/07 06:32:22;;;;;;;1.80;1.37;;;1.00;98.00;;;;;;5091827;28;20488;-67
2021/04/07 06:34:49;;;;;;;1.20;1.00;;;1.20;98.00;;;;;;5089930;28;20480;-67
2021/04/07 06:37:16;;;;;;;1.20;1.03;;;1.20;98.00;;;;;;5091784;28;20461;-67
2021/04/07 06:39:42;;;;;;;1.20;1.00;;;1.30;98.00;;;;;;5088544;28;20481;-67
2021/04/07 06:42:08;;;;;;;1.20;1.00;;;1.30;98.00;;;;;;5091654;28;20504;-66
2021/04/07 06:44:35;;;;;;;1.63;1.30;;;1.40;98.00;;;;;;5089275;28;20459;-67
2021/04/07 06:47:04;;;;;;;1.20;1.07;;;1.30;98.00;;;;;;5090158;28;20501;-67
2021/04/07 06:49:33;;;;;;;1.20;1.10;;;1.30;98.00;;;;;;5089406;28;21036;-67
2021/04/07 06:52:05;;;;;;;1.40;1.27;;;1.20;98.00;;;;;;5091044;28;20490;-67
2021/04/07 06:54:34;;;;;;;1.20;1.00;;;1.20;98.00;;;;;;5089276;28;20545;-67
2021/04/07 06:57:02;;;;;;;1.20;1.00;;;1.20;98.00;;;;;;5091233;28;20459;-68
2021/04/07 06:59:30;;;;;;;1.47;1.20;;;1.20;98.00;;;;;;5089127;28;20496;-67
2021/04/07 07:01:56;;;;;;;1.30;1.17;;;1.20;98.00;;;;;;5091017;28;20955;-68
2021/04/07 07:04:23;;;;;;;1.20;1.00;;;1.10;98.00;;;;;;5089002;28;20456;-68
2021/04/07 07:06:54;;;;;;;1.20;0.93;;;1.20;98.00;;;;;;5090989;28;20456;-67
2021/04/07 07:09:22;;;;;;;1.20;1.00;;;1.30;98.00;;;;;;5089012;28;20805;-67
2021/04/07 07:11:49;;;;;;;1.20;1.00;;;1.40;98.00;;;;;;5090979;28;20483;-66
2021/04/07 07:14:17;;;;;;;1.20;1.20;;;1.40;98.00;;;;;;5087261;28;20481;-68
2021/04/07 07:16:45;;;;;;;2.30;1.10;;;1.60;98.00;;;;;;5091136;28;20455;-67
2021/04/07 07:19:21;;;;;;;1.20;1.00;;;1.50;98.00;;;;;;5087356;28;20469;-68
2021/04/07 07:21:52;;;;;;;1.20;0.90;;;1.50;98.00;;;;;;5091004;28;20453;-68
2021/04/07 07:24:30;;;;;;;1.20;1.00;;;1.50;98.00;;;;;;5088814;28;20485;-68
2021/04/07 07:26:58;;;;;;;1.20;1.00;;;1.50;98.00;;;;;;5090837;28;20494;-68
2021/04/07 07:29:27;;;;;;;1.20;1.00;;;1.60;98.00;;;;;;5087664;28;20840;-69
2021/04/07 07:32:01;;;;;;;1.20;0.97;;;1.70;98.00;;;;;;5090250;28;20569;-68
2021/04/07 07:34:28;;;;;;;1.20;1.10;;;1.60;98.00;;;;;;5088079;28;20461;-68
2021/04/07 07:36:56;;;;;;;1.20;1.00;;;1.70;98.00;;;;;;5090488;28;20461;-70
2021/04/07 07:39:27;;;;;;;1.20;1.10;;;1.70;98.00;;;;;;5088126;28;20458;-72
2021/04/07 07:41:59;;;;;;;1.20;1.10;;;1.80;98.00;;;;;;5090073;28;20560;-71
2021/04/07 07:44:27;;;;;;;1.20;1.10;;;1.70;97.40;;;;;;5088139;28;20962;-70
2021/04/07 07:47:00;;;;;;;1.20;1.00;;;1.80;98.00;;;;;;5090142;28;20458;-73
2021/04/07 07:49:27;;;;;;;1.57;1.27;;;1.90;97.00;;;;;;5088234;28;20490;-73
2021/04/07 07:51:54;;;;;;;1.20;1.00;;;1.80;96.80;;;;;;5090180;28;20483;-73
2021/04/07 07:54:23;;;;;;;1.20;1.00;;;1.80;97.00;;;;;;5087807;28;20891;-75
2021/04/07 07:56:51;;;;;;;1.20;1.00;;;1.90;96.90;;;;;;5090264;28;20969;-73
2021/04/07 07:59:29;;;;;;;1.20;1.00;;;1.80;96.40;;;;;;5087674;28;20462;-70
2021/04/07 08:01:56;;;;;;;1.60;1.50;;;1.80;97.10;;;;;;5089915;28;20461;-70
2021/04/07 08:04:23;;;;;;;1.20;1.00;;;2.00;95.80;;;;;;5087811;28;21021;-71
2021/04/07 08:06:50;;;;;;;1.20;1.00;;;2.10;96.00;;;;;;5090193;28;20462;-70
2021/04/07 08:09:16;;;;;;;1.30;1.00;;;2.20;96.80;;;;;;5087763;28;20466;-70
2021/04/07 08:11:46;;;;;;;1.20;1.00;;;2.40;94.70;;;;;;5089683;28;20486;-72
2021/04/07 08:14:14;;;;;;;1.20;1.00;;;2.40;93.60;;;;;;5087701;28;20918;-71
2021/04/07 08:16:44;;;;;;;1.20;1.00;;;2.50;93.40;;;;;;5089825;28;20463;-71
2021/04/07 08:19:11;;;;;;;1.20;1.00;;;2.50;95.10;;;;;;5087812;28;20871;-70
2021/04/07 08:21:40;;;;;;;1.20;1.00;;;2.40;95.90;;;;;;5089519;28;20463;-71
2021/04/07 08:24:10;;;;;;;1.20;1.00;;;2.20;94.60;;;;;;5088626;28;20465;-72
2021/04/07 08:26:39;;;;;;;1.20;1.00;;;2.10;96.10;;;;;;5089797;28;21009;-71
2021/04/07 08:29:07;;;;;;;1.20;1.00;;;2.10;96.70;;;;;;5088909;28;20466;-71
2021/04/07 08:31:35;;;;;;;1.20;1.00;;;2.00;96.80;;;;;;5088506;28;20537;-72
2021/04/07 08:34:06;;;;;;;1.20;1.10;;;2.10;95.90;;;;;;5090005;28;20462;-71
2021/04/07 08:36:33;;;;;;;1.20;1.10;;;2.10;96.20;;;;;;5088994;28;20490;-70
2021/04/07 08:39:01;;;;;;;1.20;1.00;;;2.10;94.80;;;;;;5090613;28;20559;-72
2021/04/07 08:41:28;;;;;;;1.20;1.00;;;2.20;94.80;;;;;;5091301;28;20570;-71
2021/04/07 08:43:55;;;;;;;1.30;1.20;;;2.30;96.10;;;;;;5093433;28;20497;-72
2021/04/07 08:46:24;;;;;;;1.20;0.90;;;2.50;95.90;;;;;;5091104;28;20482;-71
2021/04/07 08:48:51;;;;;;;1.20;1.10;;;2.70;96.50;;;;;;5093423;28;20490;-70
2021/04/07 08:51:23;;;;;;;1.20;0.90;;;2.80;95.20;;;;;;5089574;28;20484;-71
2021/04/07 08:53:56;;;;;;;1.20;1.00;;;2.70;93.50;;;;;;5092962;28;20948;-72
2021/04/07 08:56:26;;;;;;;1.20;1.00;;;2.60;93.10;;;;;;5090892;28;20833;-71
2021/04/07 08:58:54;;;;;;;1.20;0.90;;;2.50;95.60;;;;;;5093138;28;20825;-71
2021/04/07 09:01:23;;;;;;;1.20;1.10;;;2.50;96.40;;;;;;5090874;28;20517;-71
2021/04/07 09:03:50;;;;;;;1.20;1.00;;;2.60;96.10;;;;;;5093153;28;20493;-70
2021/04/07 09:06:17;;;;;;;1.20;1.00;;;2.50;96.70;;;;;;5090784;28;20486;-72
2021/04/07 09:08:55;;;;;;;1.20;0.97;;;2.50;96.40;;;;;;5093047;28;20657;-66
2021/04/07 09:11:28;;;;;;;1.20;0.90;;;2.50;96.70;;;;;;5089300;28;20525;-71
2021/04/07 09:14:00;;;;;;;1.20;0.93;;;2.50;97.90;;;;;;5091999;28;20549;-72
2021/04/07 09:16:37;;;;;;;1.20;1.00;;;2.50;98.00;;;;;;5089947;28;20493;-71
2021/04/07 09:19:15;;;;;;;1.20;1.00;;;2.50;97.30;;;;;;5092209;28;20463;-72
2021/04/07 09:21:57;;;;;;;1.20;1.10;;;2.50;98.00;;;;;;5091733;28;20968;-71
2021/04/07 09:24:27;;;;;;;1.20;1.00;;;2.50;97.80;;;;;;5090190;28;20455;-71
2021/04/07 09:26:55;;;;;;;1.20;0.97;;;2.60;96.80;;;;;;5092935;28;20467;-70
2021/04/07 09:29:22;;;;;;;1.20;1.03;;;2.60;97.00;;;;;;5090133;28;20550;-71
2021/04/07 09:31:51;;;;;;;1.20;1.00;;;2.70;96.30;;;;;;5092292;28;20494;-71
2021/04/07 09:34:18;;;;;;;1.20;0.90;;;2.80;95.30;;;;;;5089959;28;20455;-71
2021/04/07 09:36:46;;;;;;;1.30;1.20;;;2.90;96.50;;;;;;5092521;28;20976;-71
2021/04/07 09:39:15;;;;;;;1.20;0.90;;;2.80;95.50;;;;;;5091174;28;20495;-71
2021/04/07 09:41:44;;;;;;;1.30;1.10;;;2.70;95.10;;;;;;5092066;28;20467;-71
2021/04/07 09:44:12;;;;;;;1.20;0.90;;;2.40;96.00;;;;;;5092448;28;20458;-72
2021/04/07 09:46:39;;;;;;;1.20;1.07;;;2.30;98.00;;;;;;5091573;28;20490;-71
2021/04/07 09:49:08;;;;;;;1.20;1.00;;;2.50;98.00;;;;;;5093173;28;20979;-72
2021/04/07 09:51:37;;;;;;;1.20;1.00;;;2.50;98.00;;;;;;5088956;28;20517;-73
2021/04/07 09:54:14;;;;;;;1.20;1.00;;;2.50;98.00;;;;;;5092374;28;20463;-73
2021/04/07 09:57:03;;;;;;;1.20;1.00;;;2.50;98.00;;;;;;5091291;28;20459;-72
2021/04/07 09:59:38;;;;;;;1.20;1.00;;;2.50;98.00;;;;;;5085339;28;20550;-76
2021/04/07 10:02:07;;;;;;;1.20;1.00;;;2.60;98.00;;;;;;5092526;28;20948;-73
2021/04/07 10:04:36;;;;;;;1.20;1.00;;;2.60;98.00;;;;;;5090407;28;20462;-72
2021/04/07 10:07:10;;;;;;;1.20;1.00;;;2.70;98.00;;;;;;5091906;28;20826;-73
2021/04/07 10:09:38;;;;;;;1.20;1.00;;;2.90;97.30;;;;;;5089516;28;20450;-71
2021/04/07 10:12:07;;;;;;;1.20;0.97;;;3.10;98.00;;;;;;5091822;28;20489;-64
2021/04/07 10:14:34;;;;;;;1.20;1.00;;;3.20;97.40;;;;;;5089659;28;20459;-71
2021/04/07 10:17:12;;;;;;;1.20;1.00;;;3.30;97.40;;;;;;5091868;28;20538;-71
2021/04/07 10:19:39;;;;;;;1.20;1.00;;;3.30;96.10;;;;;;5090403;28;20461;-70
2021/04/07 10:22:14;;;;;;;1.20;0.90;;;3.40;96.30;;;;;;5092301;28;20474;-71
2021/04/07 10:24:41;;;;;;;1.20;0.90;;;3.30;96.30;;;;;;5089904;28;20462;-72
2021/04/07 10:27:09;;;;;;;1.20;1.00;;;3.30;95.40;;;;;;5092321;28;20884;-71
2021/04/07 10:29:38;;;;;;;1.20;1.00;;;3.30;95.90;;;;;;5089943;28;20974;-71
2021/04/07 10:32:05;;;;;;;1.70;1.10;;;3.30;94.20;;;;;;5091797;28;20484;-72
2021/04/07 10:34:33;;;;;;;1.20;0.93;;;3.20;94.60;;;;;;5089545;28;20503;-72
2021/04/07 10:37:02;;;;;;;1.20;0.90;;;3.20;94.60;;;;;;5092266;28;20945;-71
2021/04/07 10:39:35;;;;;;;1.20;1.00;;;3.20;95.90;;;;;;5089247;28;20487;-72
2021/04/07 10:42:02;;;;;;;1.63;1.60;;;3.10;96.10;;;;;;5091693;28;21044;-71
2021/04/07 10:44:32;;;;;;;1.20;1.00;;;3.00;94.80;;;;;;5089288;28;20514;-71
2021/04/07 10:46:59;;;;;;;1.47;1.20;;;3.10;96.20;;;;;;5091639;28;20479;-71
2021/04/07 10:49:26;;;;;;;1.20;1.00;;;3.00;94.60;;;;;;5089589;28;20486;-72
2021/04/07 10:52:01;;;;;;;1.40;1.20;;;3.10;93.60;;;;;;5090774;28;20495;-71
2021/04/07 10:54:30;;;;;;;1.20;1.00;;;3.10;93.90;;;;;;5089973;28;20475;-71
2021/04/07 10:57:03;;;;;;;1.20;1.03;;;3.20;96.90;;;;;;5092350;28;20816;-73
2021/04/07 10:59:31;;;;;;;1.20;1.00;;;3.20;95.00;;;;;;5089113;28;20792;-71
2021/04/07 11:01:58;;;;;;;1.20;1.00;;;3.20;97.20;;;;;;5090163;28;20448;-70
2021/04/07 11:04:27;;;;;;;1.20;1.00;;;3.00;97.70;;;;;;5088490;28;20459;-71
2021/04/07 11:06:58;;;;;;;1.20;1.00;;;3.10;97.20;;;;;;5090988;28;20576;-71
2021/04/07 11:09:27;;;;;;;1.20;0.90;;;3.20;97.10;;;;;;5087478;28;20458;-71
2021/04/07 11:11:55;;;;;;;1.20;0.97;;;3.40;97.50;;;;;;5090571;28;20483;-70
2021/04/07 11:14:22;;;;;;;1.20;1.00;;;3.50;95.80;;;;;;5090638;28;20447;-70
2021/04/07 11:16:57;;;;;;;1.20;1.10;;;3.50;94.40;;;;;;5091252;28;20865;-72
2021/04/07 11:19:24;;;;;;;1.20;1.00;;;3.60;94.90;;;;;;5088933;28;20459;-71
2021/04/07 11:21:51;;;;;;;1.20;1.00;;;3.70;94.40;;;;;;5091453;28;20502;-71
2021/04/07 11:24:18;;;;;;;1.20;1.10;;;3.70;92.20;;;;;;5090950;28;20543;-70
2021/04/07 11:26:45;;;;;;;1.20;1.00;;;3.70;93.10;;;;;;5088625;28;20460;-70
2021/04/07 11:29:11;;;;;;;1.20;1.00;;;3.80;92.80;;;;;;5090431;28;20462;-71
2021/04/07 11:31:38;;;;;;;1.20;0.90;;;4.00;90.50;;;;;;5087283;28;20488;-71
2021/04/07 11:34:07;;;;;;;1.20;0.97;;;4.00;91.00;;;;;;5090703;28;21115;-72
2021/04/07 11:36:49;;;;;;;1.20;1.07;;;4.30;92.90;;;;;;5088656;28;20487;-72
2021/04/07 11:39:21;;;;;;;1.20;1.00;;;4.50;92.60;;;;;;5090655;28;20452;-72
2021/04/07 11:42:01;;;;;;;1.20;1.00;;;4.70;91.30;;;;;;5088906;28;20881;-70
2021/04/07 11:44:29;;;;;;;1.30;1.10;;;4.80;90.90;;;;;;5088994;28;20456;-71
2021/04/07 11:46:57;;;;;;;1.20;1.03;;;4.90;90.40;;;;;;5090499;28;20484;-69
2021/04/07 11:49:25;;;;;;;1.73;1.57;;;4.90;88.40;;;;;;5090070;28;20457;-70
2021/04/07 11:51:52;;;;;;;1.20;1.00;;;4.90;87.10;;;;;;5089376;28;20484;-70
2021/04/07 11:54:19;;;;;;;1.20;1.00;;;4.90;87.40;;;;;;5090282;28;20527;-71
2021/04/07 11:56:47;;;;;;;1.20;1.00;;;4.90;85.60;;;;;;5087006;28;20464;-70
2021/04/07 11:59:15;;;;;;;1.20;1.00;;;4.70;84.70;;;;;;5090317;28;21019;-69
2021/04/07 12:01:43;;;;;;;1.30;1.20;;;4.70;86.10;;;;;;5087436;28;20477;-68
2021/04/07 12:04:10;;;;;;;1.20;1.00;;;4.80;85.70;;;;;;5090164;28;20452;-69
2021/04/07 12:06:37;;;;;;;1.20;1.00;;;4.80;84.30;;;;;;5088008;28;20478;-68
2021/04/07 12:09:05;;;;;;;1.20;1.00;;;4.80;84.30;;;;;;5090251;28;20464;-69
2021/04/07 12:11:32;;;;;;;1.20;0.97;;;4.80;84.30;;;;;;5087476;28;20485;-69
2021/04/07 12:13:59;;;;;;;1.20;1.00;;;4.70;84.20;;;;;;5090963;28;20909;-69
2021/04/07 12:16:26;;;;;;;1.20;1.00;;;4.60;83.70;;;;;;5090612;28;20456;-70
2021/04/07 12:18:53;;;;;;;1.20;1.00;;;4.60;84.30;;;;;;5094115;28;20463;-69
2021/04/07 12:21:20;;;;;;;1.20;1.00;;;4.50;81.50;;;;;;5091132;28;20479;-70
2021/04/07 12:23:48;;;;;;;1.20;1.00;;;4.40;82.10;;;;;;5094034;28;20729;-69
2021/04/07 12:26:15;;;;;;;1.20;1.00;;;4.20;82.40;;;;;;5091827;28;20858;-69
2021/04/07 12:28:43;;;;;;;1.20;0.93;;;4.10;81.90;;;;;;5093943;28;20454;-71
2021/04/07 12:31:12;;;;;;;1.20;0.90;;;4.00;84.20;;;;;;5091157;28;20969;-71
2021/04/07 12:33:40;;;;;;;1.20;1.07;;;4.00;84.00;;;;;;5092433;28;20456;-71
2021/04/07 12:36:09;;;;;;;1.20;1.00;;;4.00;82.70;;;;;;5091282;28;20459;-71
2021/04/07 12:38:36;;;;;;;1.20;1.00;;;3.90;84.00;;;;;;5093681;28;20542;-74
2021/04/07 12:41:08;;;;;;;1.20;1.00;;;4.00;82.90;;;;;;5091005;28;20547;-69
2021/04/07 12:43:35;;;;;;;1.20;1.00;;;4.00;83.20;;;;;;5093325;28;20451;-71
2021/04/07 12:46:02;;;;;;;1.30;1.10;;;4.00;83.90;;;;;;5091306;28;20455;-69
2021/04/07 12:48:29;;;;;;;1.20;1.00;;;4.10;84.80;;;;;;5093184;28;21028;-68
2021/04/07 12:50:55;;;;;;;1.20;0.90;;;4.20;84.60;;;;;;5090832;28;20859;-69
2021/04/07 12:53:21;;;;;;;1.20;1.00;;;4.20;85.20;;;;;;5092851;28;20482;-70
2021/04/07 12:55:49;;;;;;;1.20;1.00;;;4.20;85.90;;;;;;5091271;28;20950;-71
2021/04/07 12:58:17;;;;;;;1.20;0.90;;;4.30;86.80;;;;;;5093184;28;20456;-69
2021/04/07 13:00:44;;;;;;;1.20;1.00;;;4.30;87.40;;;;;;5090881;28;20448;-68
2021/04/07 13:03:11;;;;;;;1.20;1.00;;;4.30;88.40;;;;;;5092834;28;20891;-68